Stacy Shelby — WDC8962 — position and weather

sailwx.info

Track history (hours):
 
Tides and Currents Weather Stations Pressure Air Temp Water Temp Dewpoint Dewpoint Depression Visibility Wind Speed Wind Dir Waves Ship Positions

Stacy Shelby

Owner: Destin Trading Corporation, harahan, LA. More information available from US FCC via Universal Licensing System and Coast Guard Vessel Documentation Center.

Last reported at 2018-Apr-15 04:28 UTC. Time now 2018-Apr-27 02:23 UTC.
Position N 29°34' W 090°29'.
Warning: this ship's position is 11 days out of date.

Length 23 m; draft 3.2 m.

Type: Towing. MMSI: 367095660.

Date/timePositionNaut miles runAvg speedWind from/ knotsBaromVisibWave heightAir tempDewpointWater temp
2018-Apr-15 04:28N 29°34' W 090°29'2 5.4
2018-Apr-15 04:00N 29°34' W 090°32'2 4.8
2018-Apr-15 03:30N 29°34' W 090°35'2 3.5
2018-Apr-15 03:00N 29°35' W 090°37'3 5.1
2018-Apr-15 02:30N 29°36' W 090°39'2 3.9
2018-Apr-15 02:00N 29°37' W 090°41'1 2.8
2018-Apr-15 01:30N 29°36' W 090°43'2 4.1
2018-Apr-15 01:00N 29°34' W 090°44'2 4.7
2018-Apr-15 00:30N 29°32' W 090°46'4 5.5
2018-Apr-14 23:51N 29°32' W 090°50'122 3.5
2018-Apr-13 13:19N 29°56' W 093°07'1 2.5
2018-Apr-13 13:00N 29°56' W 093°08'1 1.8
2018-Apr-13 12:30N 29°56' W 093°09'1 2.3
2018-Apr-13 12:00N 29°57' W 093°10'2 3.2
2018-Apr-13 11:30N 29°58' W 093°11'2 4.9
2018-Apr-13 11:00N 29°60' W 093°13'2 4.4
2018-Apr-13 10:30N 30°02' W 093°14'2 4.1
2018-Apr-13 10:00N 30°03' W 093°16'2 4.6
2018-Apr-13 09:30N 30°05' W 093°17'1 1.1
2018-Apr-13 09:00N 30°05' W 093°18'1 2.5
2018-Apr-13 08:30N 30°06' W 093°19'2 4.1
2018-Apr-13 08:00N 30°04' W 093°21'2 3.4
2018-Apr-13 07:30N 30°04' W 093°23'3 5.2
2018-Apr-13 07:00N 30°04' W 093°26'3 5.2
2018-Apr-13 06:30N 30°04' W 093°29'3 5.4
2018-Apr-13 06:00N 30°04' W 093°32'3 5.3
2018-Apr-13 05:30N 30°04' W 093°35'3 5.4
2018-Apr-13 04:59N 30°04' W 093°38'3 5.7
2018-Apr-13 04:30N 30°04' W 093°41'3 5.1
2018-Apr-13 04:00N 30°03' W 093°44'2 3.9
2018-Apr-13 03:31N 30°01' W 093°45'2 4.5
2018-Apr-13 03:01N 29°60' W 093°47'3 5.5
2018-Apr-13 02:31N 29°59' W 093°50'2 3.4
2018-Apr-13 02:01N 29°57' W 093°52'2 5.0
2018-Apr-13 01:31N 29°55' W 093°53'3 5.5
2018-Apr-13 01:01N 29°53' W 093°55'3 5.7
2018-Apr-13 00:31N 29°51' W 093°57'2 4.6
2018-Apr-13 00:01N 29°49' W 093°59'2 3.9
2018-Apr-12 23:31N 29°48' W 094°00'2 4.2
2018-Apr-12 23:00N 29°46' W 094°02'2 4.1
2018-Apr-12 22:31N 29°45' W 094°04'2 4.0
2018-Apr-12 22:00N 29°44' W 094°06'2 4.1
2018-Apr-12 21:30N 29°43' W 094°08'2 4.0
2018-Apr-12 21:00N 29°41' W 094°10'2 4.0
2018-Apr-12 20:30N 29°41' W 094°12'2 4.2
2018-Apr-12 20:01N 29°40' W 094°14'2 4.3
2018-Apr-12 19:30N 29°39' W 094°16'2 4.3
2018-Apr-12 19:00N 29°38' W 094°18'2 3.9
2018-Apr-12 18:30N 29°37' W 094°20'1 1.6
2018-Apr-12 18:00N 29°37' W 094°21'3 3.7
2018-Apr-12 17:06N 29°36' W 094°25'6 3.9
2018-Apr-12 15:33N 29°31' W 094°30'0 5.0
2018-Apr-12 15:29N 29°31' W 094°30'2 4.0
2018-Apr-12 14:56N 29°30' W 094°32'2 4.4
2018-Apr-12 14:30N 29°30' W 094°34'2 4.7
2018-Apr-12 13:59N 29°29' W 094°37'2 3.5
2018-Apr-12 13:27N 29°28' W 094°39'2 4.9
2018-Apr-12 13:01N 29°27' W 094°41'3 4.9
2018-Apr-12 12:29N 29°25' W 094°43'6 2.7
2018-Apr-12 10:12N 29°26' W 094°50'2 5.8
2018-Apr-12 09:46N 29°29' W 094°52'2 5.9
2018-Apr-12 09:29N 29°30' W 094°52'3 6.1
2018-Apr-12 09:01N 29°33' W 094°54'3 6.0
2018-Apr-12 08:30N 29°35' W 094°56'3 6.2
2018-Apr-12 08:00N 29°38' W 094°58'3 6.5
2018-Apr-12 07:30N 29°41' W 094°59'3 5.4
2018-Apr-12 07:00N 29°43' W 095°01'4 5.2
2018-Apr-12 06:18N 29°46' W 095°04'1 2.8
2018-Apr-12 06:00N 29°46' W 095°05'1 2.0
2018-Apr-12 05:28N 29°47' W 095°04'0 0.1
2018-Apr-12 05:01N 29°47' W 095°04'0 0.1
2018-Apr-12 04:25N 29°47' W 095°04'0 0.2
2018-Apr-12 04:00N 29°47' W 095°05'0 0.3
2018-Apr-12 03:22N 29°47' W 095°05'0 0.0
2018-Apr-12 02:53N 29°47' W 095°05'0 0.1
2018-Apr-12 02:28N 29°47' W 095°05'0 0.0
2018-Apr-12 00:15N 29°47' W 095°05'0 0.0
2018-Apr-11 22:51N 29°47' W 095°05'0 0.0
2018-Apr-11 22:30N 29°47' W 095°05'0 0.0
2018-Apr-11 22:00N 29°47' W 095°05'0 0.0
2018-Apr-11 21:27N 29°47' W 095°05'0 0.0
2018-Apr-11 21:00N 29°47' W 095°05'0 0.0
2018-Apr-11 20:20N 29°47' W 095°05'0 0.0
2018-Apr-11 19:14N 29°47' W 095°05'0 0.0
2018-Apr-11 19:00N 29°47' W 095°05'0 0.0
2018-Apr-11 18:30N 29°47' W 095°05'0 0.0
2018-Apr-11 18:00N 29°47' W 095°05'0 0.0
2018-Apr-11 17:29N 29°47' W 095°05'0 0.0
2018-Apr-11 17:00N 29°47' W 095°05'0 0.0
2018-Apr-11 16:28N 29°47' W 095°05'0 0.0
2018-Apr-11 15:59N 29°47' W 095°05'0 0.0
2018-Apr-11 15:31N 29°47' W 095°05'0 0.0
2018-Apr-11 14:56N 29°47' W 095°05'0 0.0
2018-Apr-11 14:28N 29°47' W 095°05'0 0.0
2018-Apr-11 13:59N 29°47' W 095°05'0 0.0
2018-Apr-11 13:28N 29°47' W 095°05'0 0.0
2018-Apr-11 12:37N 29°47' W 095°05'0 0.0
2018-Apr-11 12:23N 29°47' W 095°05'0 0.0
2018-Apr-11 11:52N 29°47' W 095°05'0 0.0
2018-Apr-11 11:23N 29°47' W 095°05'0 0.0
2018-Apr-11 10:57N 29°47' W 095°05'0 0.0
2018-Apr-11 10:16N 29°47' W 095°05'0 1.7
2018-Apr-11 09:59N 29°47' W 095°04'2 3.7
2018-Apr-11 09:19N 29°45' W 095°06'0 0.0
2018-Apr-11 08:44N 29°45' W 095°06'0 0.0
2018-Apr-11 08:29N 29°45' W 095°06'3 5.9
2018-Apr-11 08:00N 29°44' W 095°03'2 3.2
2018-Apr-11 07:30N 29°42' W 095°02'0 0.7
2018-Apr-11 07:00N 29°42' W 095°03'2 2.6
2018-Apr-11 06:22N 29°43' W 095°01'4 8.9
2018-Apr-11 05:58N 29°46' W 095°05'2 0.4
2018-Apr-11 01:53N 29°47' W 095°05'0 0.9
2018-Apr-11 01:23N 29°47' W 095°04'1 3.2
2018-Apr-11 00:59N 29°46' W 095°05'1 0.0
2018-Apr-10 02:57N 29°45' W 095°04'3 6.4
2018-Apr-10 02:28N 29°44' W 095°01'1 3.0
2018-Apr-10 01:58N 29°42' W 095°03'0 0.2
2018-Apr-10 00:38N 29°42' W 095°03'0 0.0
2018-Apr-10 00:27N 29°42' W 095°03'0 0.0
2018-Apr-09 23:59N 29°42' W 095°03'0 0.0
2018-Apr-09 23:27N 29°42' W 095°03'0 0.0
2018-Apr-09 22:55N 29°42' W 095°03'0 0.0
2018-Apr-09 22:30N 29°42' W 095°03'0 0.0
2018-Apr-09 21:56N 29°42' W 095°03'0 0.0
2018-Apr-09 21:19N 29°42' W 095°03'0 0.0
2018-Apr-09 21:00N 29°42' W 095°03'0 0.0
2018-Apr-09 20:30N 29°42' W 095°03'0 0.0
2018-Apr-09 20:00N 29°42' W 095°03'1 2.4
2018-Apr-09 19:26N 29°42' W 095°01'2 3.6
2018-Apr-09 19:00N 29°44' W 095°02'3 6.3
2018-Apr-09 18:29N 29°46' W 095°05'2 0.0
2018-Apr-07 23:52N 29°47' W 095°05'0 1.1
2018-Apr-07 23:30N 29°47' W 095°04'1 0.1
2018-Apr-07 13:03N 29°46' W 095°05'1 2.6
2018-Apr-07 12:41N 29°47' W 095°05'0 0.0
2018-Apr-07 00:26N 29°47' W 095°05'0 0.0
2018-Apr-06 23:27N 29°47' W 095°05'0 0.0
2018-Apr-06 23:00N 29°47' W 095°05'0 0.0
2018-Apr-06 22:30N 29°47' W 095°05'0 0.0
2018-Apr-06 20:31N 29°47' W 095°05'0 0.0
2018-Apr-06 20:29N 29°47' W 095°05'0 0.0
2018-Apr-06 20:01N 29°47' W 095°05'0 0.0
2018-Apr-06 19:25N 29°47' W 095°05'0 0.0
2018-Apr-06 18:48N 29°47' W 095°05'0 0.0
2018-Apr-06 18:21N 29°47' W 095°05'0 0.0
2018-Apr-06 17:24N 29°47' W 095°05'  
Track history (hours):
 
Tides and Currents Weather Stations Pressure Air Temp Water Temp Dewpoint Dewpoint Depression Visibility Wind Speed Wind Dir Waves Ship Positions

Stacy Shelby

Owner: Destin Trading Corporation, harahan, LA. More information available from US FCC via Universal Licensing System and Coast Guard Vessel Documentation Center.

Last reported at 2018-Apr-15 04:28 UTC. Time now 2018-Apr-27 02:23 UTC.
Position N 29°34' W 090°29'.
Warning: this ship's position is 11 days out of date.

Length 23 m; draft 3.2 m.

Type: Towing. MMSI: 367095660.

Date/timePositionNaut miles runAvg speedWind from/ knotsBaromVisibWave heightAir tempDewpointWater temp
2018-Apr-15 04:28N 29°34' W 090°29'2 5.4
2018-Apr-15 04:00N 29°34' W 090°32'2 4.8
2018-Apr-15 03:30N 29°34' W 090°35'2 3.5
2018-Apr-15 03:00N 29°35' W 090°37'3 5.1
2018-Apr-15 02:30N 29°36' W 090°39'2 3.9
2018-Apr-15 02:00N 29°37' W 090°41'1 2.8
2018-Apr-15 01:30N 29°36' W 090°43'2 4.1
2018-Apr-15 01:00N 29°34' W 090°44'2 4.7
2018-Apr-15 00:30N 29°32' W 090°46'4 5.5
2018-Apr-14 23:51N 29°32' W 090°50'122 3.5
2018-Apr-13 13:19N 29°56' W 093°07'1 2.5
2018-Apr-13 13:00N 29°56' W 093°08'1 1.8
2018-Apr-13 12:30N 29°56' W 093°09'1 2.3
2018-Apr-13 12:00N 29°57' W 093°10'2 3.2
2018-Apr-13 11:30N 29°58' W 093°11'2 4.9
2018-Apr-13 11:00N 29°60' W 093°13'2 4.4
2018-Apr-13 10:30N 30°02' W 093°14'2 4.1
2018-Apr-13 10:00N 30°03' W 093°16'2 4.6
2018-Apr-13 09:30N 30°05' W 093°17'1 1.1
2018-Apr-13 09:00N 30°05' W 093°18'1 2.5
2018-Apr-13 08:30N 30°06' W 093°19'2 4.1
2018-Apr-13 08:00N 30°04' W 093°21'2 3.4
2018-Apr-13 07:30N 30°04' W 093°23'3 5.2
2018-Apr-13 07:00N 30°04' W 093°26'3 5.2
2018-Apr-13 06:30N 30°04' W 093°29'3 5.4
2018-Apr-13 06:00N 30°04' W 093°32'3 5.3
2018-Apr-13 05:30N 30°04' W 093°35'3 5.4
2018-Apr-13 04:59N 30°04' W 093°38'3 5.7
2018-Apr-13 04:30N 30°04' W 093°41'3 5.1
2018-Apr-13 04:00N 30°03' W 093°44'2 3.9
2018-Apr-13 03:31N 30°01' W 093°45'2 4.5
2018-Apr-13 03:01N 29°60' W 093°47'3 5.5
2018-Apr-13 02:31N 29°59' W 093°50'2 3.4
2018-Apr-13 02:01N 29°57' W 093°52'2 5.0
2018-Apr-13 01:31N 29°55' W 093°53'3 5.5
2018-Apr-13 01:01N 29°53' W 093°55'3 5.7
2018-Apr-13 00:31N 29°51' W 093°57'2 4.6
2018-Apr-13 00:01N 29°49' W 093°59'2 3.9
2018-Apr-12 23:31N 29°48' W 094°00'2 4.2
2018-Apr-12 23:00N 29°46' W 094°02'2 4.1
2018-Apr-12 22:31N 29°45' W 094°04'2 4.0
2018-Apr-12 22:00N 29°44' W 094°06'2 4.1
2018-Apr-12 21:30N 29°43' W 094°08'2 4.0
2018-Apr-12 21:00N 29°41' W 094°10'2 4.0
2018-Apr-12 20:30N 29°41' W 094°12'2 4.2
2018-Apr-12 20:01N 29°40' W 094°14'2 4.3
2018-Apr-12 19:30N 29°39' W 094°16'2 4.3
2018-Apr-12 19:00N 29°38' W 094°18'2 3.9
2018-Apr-12 18:30N 29°37' W 094°20'1 1.6
2018-Apr-12 18:00N 29°37' W 094°21'3 3.7
2018-Apr-12 17:06N 29°36' W 094°25'6 3.9
2018-Apr-12 15:33N 29°31' W 094°30'0 5.0
2018-Apr-12 15:29N 29°31' W 094°30'2 4.0
2018-Apr-12 14:56N 29°30' W 094°32'2 4.4
2018-Apr-12 14:30N 29°30' W 094°34'2 4.7
2018-Apr-12 13:59N 29°29' W 094°37'2 3.5
2018-Apr-12 13:27N 29°28' W 094°39'2 4.9
2018-Apr-12 13:01N 29°27' W 094°41'3 4.9
2018-Apr-12 12:29N 29°25' W 094°43'6 2.7
2018-Apr-12 10:12N 29°26' W 094°50'2 5.8
2018-Apr-12 09:46N 29°29' W 094°52'2 5.9
2018-Apr-12 09:29N 29°30' W 094°52'3 6.1
2018-Apr-12 09:01N 29°33' W 094°54'3 6.0
2018-Apr-12 08:30N 29°35' W 094°56'3 6.2
2018-Apr-12 08:00N 29°38' W 094°58'3 6.5
2018-Apr-12 07:30N 29°41' W 094°59'3 5.4
2018-Apr-12 07:00N 29°43' W 095°01'4 5.2
2018-Apr-12 06:18N 29°46' W 095°04'1 2.8
2018-Apr-12 06:00N 29°46' W 095°05'1 2.0
2018-Apr-12 05:28N 29°47' W 095°04'0 0.1
2018-Apr-12 05:01N 29°47' W 095°04'0 0.1
2018-Apr-12 04:25N 29°47' W 095°04'0 0.2
2018-Apr-12 04:00N 29°47' W 095°05'0 0.3
2018-Apr-12 03:22N 29°47' W 095°05'0 0.0
2018-Apr-12 02:53N 29°47' W 095°05'0 0.1
2018-Apr-12 02:28N 29°47' W 095°05'0 0.0
2018-Apr-12 00:15N 29°47' W 095°05'0 0.0
2018-Apr-11 22:51N 29°47' W 095°05'0 0.0
2018-Apr-11 22:30N 29°47' W 095°05'0 0.0
2018-Apr-11 22:00N 29°47' W 095°05'0 0.0
2018-Apr-11 21:27N 29°47' W 095°05'0 0.0
2018-Apr-11 21:00N 29°47' W 095°05'0 0.0
2018-Apr-11 20:20N 29°47' W 095°05'0 0.0
2018-Apr-11 19:14N 29°47' W 095°05'0 0.0
2018-Apr-11 19:00N 29°47' W 095°05'0 0.0
2018-Apr-11 18:30N 29°47' W 095°05'0 0.0
2018-Apr-11 18:00N 29°47' W 095°05'0 0.0
2018-Apr-11 17:29N 29°47' W 095°05'0 0.0
2018-Apr-11 17:00N 29°47' W 095°05'0 0.0
2018-Apr-11 16:28N 29°47' W 095°05'0 0.0
2018-Apr-11 15:59N 29°47' W 095°05'0 0.0
2018-Apr-11 15:31N 29°47' W 095°05'0 0.0
2018-Apr-11 14:56N 29°47' W 095°05'0 0.0
2018-Apr-11 14:28N 29°47' W 095°05'0 0.0
2018-Apr-11 13:59N 29°47' W 095°05'0 0.0
2018-Apr-11 13:28N 29°47' W 095°05'0 0.0
2018-Apr-11 12:37N 29°47' W 095°05'0 0.0
2018-Apr-11 12:23N 29°47' W 095°05'0 0.0
2018-Apr-11 11:52N 29°47' W 095°05'0 0.0
2018-Apr-11 11:23N 29°47' W 095°05'0 0.0
2018-Apr-11 10:57N 29°47' W 095°05'0 0.0
2018-Apr-11 10:16N 29°47' W 095°05'0 1.7
2018-Apr-11 09:59N 29°47' W 095°04'2 3.7
2018-Apr-11 09:19N 29°45' W 095°06'0 0.0
2018-Apr-11 08:44N 29°45' W 095°06'0 0.0
2018-Apr-11 08:29N 29°45' W 095°06'3 5.9
2018-Apr-11 08:00N 29°44' W 095°03'2 3.2
2018-Apr-11 07:30N 29°42' W 095°02'0 0.7
2018-Apr-11 07:00N 29°42' W 095°03'2 2.6
2018-Apr-11 06:22N 29°43' W 095°01'4 8.9
2018-Apr-11 05:58N 29°46' W 095°05'2 0.4
2018-Apr-11 01:53N 29°47' W 095°05'0 0.9
2018-Apr-11 01:23N 29°47' W 095°04'1 3.2
2018-Apr-11 00:59N 29°46' W 095°05'1 0.0
2018-Apr-10 02:57N 29°45' W 095°04'3 6.4
2018-Apr-10 02:28N 29°44' W 095°01'1 3.0
2018-Apr-10 01:58N 29°42' W 095°03'0 0.2
2018-Apr-10 00:38N 29°42' W 095°03'0 0.0
2018-Apr-10 00:27N 29°42' W 095°03'0 0.0
2018-Apr-09 23:59N 29°42' W 095°03'0 0.0
2018-Apr-09 23:27N 29°42' W 095°03'0 0.0
2018-Apr-09 22:55N 29°42' W 095°03'0 0.0
2018-Apr-09 22:30N 29°42' W 095°03'0 0.0
2018-Apr-09 21:56N 29°42' W 095°03'0 0.0
2018-Apr-09 21:19N 29°42' W 095°03'0 0.0
2018-Apr-09 21:00N 29°42' W 095°03'0 0.0
2018-Apr-09 20:30N 29°42' W 095°03'0 0.0
2018-Apr-09 20:00N 29°42' W 095°03'1 2.4
2018-Apr-09 19:26N 29°42' W 095°01'2 3.6
2018-Apr-09 19:00N 29°44' W 095°02'3 6.3
2018-Apr-09 18:29N 29°46' W 095°05'2 0.0
2018-Apr-07 23:52N 29°47' W 095°05'0 1.1
2018-Apr-07 23:30N 29°47' W 095°04'1 0.1
2018-Apr-07 13:03N 29°46' W 095°05'1 2.6
2018-Apr-07 12:41N 29°47' W 095°05'0 0.0
2018-Apr-07 00:26N 29°47' W 095°05'0 0.0
2018-Apr-06 23:27N 29°47' W 095°05'0 0.0
2018-Apr-06 23:00N 29°47' W 095°05'0 0.0
2018-Apr-06 22:30N 29°47' W 095°05'0 0.0
2018-Apr-06 20:31N 29°47' W 095°05'0 0.0
2018-Apr-06 20:29N 29°47' W 095°05'0 0.0
2018-Apr-06 20:01N 29°47' W 095°05'0 0.0
2018-Apr-06 19:25N 29°47' W 095°05'0 0.0
2018-Apr-06 18:48N 29°47' W 095°05'0 0.0
2018-Apr-06 18:21N 29°47' W 095°05'0 0.0
2018-Apr-06 17:24N 29°47' W 095°05'  

Dump ship's entire track history